Tuesday, November 21, 2017, 3:47 PM GMT
Back to Local

CWTG, Pointe-Des-Monts , Que.

Location: , , Canada Lat: 49.317
Local Time: 3:47 PM GMT (15:47 GMT) Lon: -67.383
Time Zone: GMT Elev: 16 ft

Show me the last for .
Show Coded

Time T Td Feel RH Dir Speed Gust Alt SLP Vis Weather Sky Remarks
2017-11-21 15:00 22 16 7 75 250° 21 - - 29.91 0 Peak wind: 27 mph (24 kts) from 230° at 38 min
2017-11-21 14:00 21 15 5 77 250° 22 - - 29.92 0 Peak wind: 31 mph (27 kts) from 260° at 02 min
2017-11-21 13:00 19 15 0 82 260° 24 32 - 29.89 0 Peak wind: 32 mph (28 kts) from 260° at 05 min
2017-11-21 12:00 19 12 0 75 250° 28 - - 29.89 0 Peak wind: 32 mph (28 kts) from 250° at 59 min
2017-11-21 11:00 19 12 -1 74 270° 23 31 - 29.87 0 Peak wind: 34 mph (30 kts) from 260° at 09 min
2017-11-21 10:00 19 12 -1 73 260° 30 36 - 29.85 0 Peak wind: 35 mph (31 kts) from 270° at 17 min
2017-11-21 09:00 20 13 -1 75 260° 30 38 - 29.84 0 Peak wind: 40 mph (35 kts) from 260° at 35 min
2017-11-21 08:00 20 14 1 74 260° 33 - - 29.81 0 Peak wind: 40 mph (35 kts) from 270° at 47 min
2017-11-21 07:00 20 12 0 70 270° 28 35 - 29.79 0 Peak wind: 42 mph (37 kts) from 270° at 39 min
2017-11-21 06:00 21 13 1 70 260° 30 37 - 29.75 0 Peak wind: 39 mph (34 kts) from 260° at 49 min
2017-11-21 05:00 21 14 2 73 260° 28 33 - 29.72 0 Peak wind: 33 mph (29 kts) from 270° at 22 min
2017-11-21 04:00 22 15 4 75 260° 28 - - 29.71 0 Peak wind: 37 mph (33 kts) from 260° at 26 min
2017-11-21 03:00 22 14 3 72 260° 31 - - 29.67 0 Peak wind: 39 mph (34 kts) from 250° at 49 min
2017-11-21 02:00 22 15 4 75 260° 31 - - 29.64 0 Peak wind: 36 mph (32 kts) from 270° at 22 min
2017-11-21 01:00 22 15 3 75 260° 28 33 - 29.62 0 Peak wind: 39 mph (34 kts) from 260° at 19 min
2017-11-21 00:00 24 15 5 68 260° 33 39 - 29.59 0 Peak wind: 41 mph (36 kts) from 250° at 45 min
2017-11-20 23:00 22 15 3 73 260° 31 38 - 29.57 0 Peak wind: 37 mph (33 kts) from 250° at 49 min
2017-11-20 22:00 23 17 5 74 260° 29 36 - 29.55 0 Peak wind: 36 mph (32 kts) from 260° at 42 min
2017-11-20 21:00 23 16 5 73 270° 28 35 - 29.52 0 Peak wind: 34 mph (30 kts) from 250° at 51 min
2017-11-20 20:00 24 17 5 74 260° 29 35 - 29.48 0 Peak wind: 35 mph (31 kts) from 250° at 10 min
2017-11-20 19:00 24 19 5 78 260° 30 37 - 29.44 0 Peak wind: 37 mph (33 kts) from 260° at 49 min
2017-11-20 18:00 24 17 6 73 260° 30 36 - 29.42 0 Peak wind: 37 mph (33 kts) from 260° at 17 min
2017-11-20 17:00 25 18 7 74 260° 32 39 - 29.38 0 Peak wind: 42 mph (37 kts) from 250° at 49 min
2017-11-20 16:00 25 18 6 74 260° 32 39 - 29.38 0 Peak wind: 42 mph (37 kts) from 260° at 28 min

Support USWX by starting your Amazon purchase here.